ACT        NSW        VIC        QLD        SA        WA        TAS        NT        INFO        CALC            by VK5ZD

  Atmospheric Gas Attenuation - ITU Rec 676-11   --------------- db/100km ---------------
Station Date Time Temp RH % AH g/m3 Dew Point Wind Direction Speed kph Gust kph Barometer mB Rainfall Since 9am 24GHz 47GHz 76GHz 122GHz 134GHz 241GHz
Aireys Inlet 25 01:20 12.7 83 9.24 9.9 15 19 1013.1 0 21.0 27.3 43.0 113.0 108.5 373.6
Avalon 25 01:00 13.4 100 11.63 13.4 0 0 1013.3 0 26.1 31.2 52.9 139.5 141.4 488.7
Bairnsdale 25 01:20 14.6 91 11.39 13.1 9 9 1013.8 0 25.5 30.4 51.1 134.6 135.8 469.2
Ballarat 25 01:20 11.7 90 9.41 10.1 9 11 1012.8 0 21.4 27.9 44.2 116.3 112.2 386.7
Ben Nevis 25 01:20 11.1 87 8.76 9 15 17 1013.1 0 20.1 27.0 41.8 109.9 104.1 358.0
Bendigo 25 01:20 13 84 9.53 10.4 6 6 1012.1 0 21.6 27.6 44.0 115.6 112.0 385.8
Cape Nelson 25 01:20 14.7 90 11.33 13.1 17 19 1012.7 0 25.4 30.2 50.7 133.6 134.6 465.2
Cape Otway 25 01:20 14.8 88 11.15 12.8 19 22 1008.4 0 25.0 29.7 49.6 130.8 131.4 454.1
Casterton 25 01:20 9.9 97 9.06 9.4 0 0 1012.8 0 20.8 27.8 43.8 115.0 109.9 378.3
Cerberus 25 01:20 13.1 86 9.81 10.9 4 4 1013 0 22.2 28.1 45.2 118.7 115.8 399.2
Charlton 25 01:20 15 80 10.26 11.6 0 0 1012.6 0 23.1 28.2 45.9 120.8 119.1 410.9
Coldstream 25 01:20 12 99 10.55 11.8 0 0 1013 0 23.9 29.8 49.0 129.1 128.1 441.9
Combienbar 25 01:20 10.9 90 8.95 9.3 0 0 1013.4 0 20.5 27.4 42.8 112.3 107.0 368.3
Dartmoor 25 01:20 11.8 98 10.32 11.5 0 0 1013.1 0 23.4 29.4 48.1 126.7 125.1 431.5
East Sale Airport 25 01:20 13.3 93 10.75 12.2 0 0 1013.9 0 24.2 29.7 49.1 129.3 128.8 444.8
Edenhope 25 01:20 12 82 8.74 9 2 2 1013.1 0 20.0 26.7 41.3 108.4 102.6 353.0
Eildon Fire Tower 25 01:20 11.9 78 8.26 8.2 4 4 1013.1 0 19.0 25.9 39.4 103.3 96.3 330.7
Essendon Airport 25 01:20 15 81 10.39 11.8 0 0 1012.8 0 23.4 28.5 46.5 122.3 120.9 417.2
Falls Creek 25 01:20 8.3 85 7.17 5.9 11 13 1012 0 16.8 25.1 36.6 95.9 85.8 293.5
Ferny Creek 25 01:20 11.4 86 8.83 9.1 0 0 1013.1 0 20.2 27.0 42.0 110.2 104.6 360.0
Frankston (Ballam Park) 25 01:20 13.4 86 10 11.2 4 6 1013.1 0 22.6 28.3 45.8 120.4 118.0 406.9
Gabo Island 25 01:20 14.5 83 10.32 11.7 9 11 1014.2 0 23.2 28.6 46.6 122.5 120.8 417.0
Geelong Racecourse 25 01:20 12.6 93 10.29 11.5 4 4 1013.1 0 23.3 29.1 47.5 125.0 123.3 425.5
Gelantipy 25 01:20 11.4 95 9.75 10.6 0 0 1012.6 0 22.2 28.5 45.9 120.6 117.5 404.9
Hamilton 25 01:20 10.8 89 8.8 9.1 7 7 1013.2 0 20.2 27.1 42.2 110.8 105.1 361.4
Hogan Island 25 01:20 13.5 91 10.64 12.1 26 30 1012.6 0 24.0 29.4 48.5 127.6 126.8 437.7
Hopetoun Airport 25 01:20 16.3 63 8.74 9.4 9 9 1013.1 0 19.8 25.4 39.1 102.6 97.1 334.2
Horsham 25 01:20 13.2 76 8.73 9.1 7 9 1013.1 0 19.9 26.3 40.6 106.6 100.9 347.1
Hunters Hill 25 01:20 13.6 72 8.47 8.6 4 6 1013.1 0 19.3 25.7 39.4 103.3 96.9 333.3
Kanagulk 25 01:20 11.3 83 8.47 8.5 0 0 1013 0 19.4 26.4 40.5 106.4 99.8 343.2
Kerang 24 15:00 26.7 29 7.34 7.4 9 1013.1 0 16.4 20.8 29.8 77.9 69.9 240.3
Kilmore Gap 25 01:20 12 88 9.38 10.1 11 11 1013.1 0 21.4 27.7 44.0 115.6 111.4 383.8
Kingfish B 25 01:20 14.9 85 10.83 12.4 13 15 1013.1 0 24.3 29.3 48.4 127.5 127.2 439.3
Kyabram 25 01:20 14.5 83 10.32 11.6 9 11 1013.1 0 23.2 28.5 46.5 122.3 120.7 416.6
Latrobe Valley 25 01:20 12.2 92 9.93 10.9 0 0 1013.7 0.2 22.5 28.6 46.2 121.6 118.9 410.0
Laverton 25 01:20 14.4 85 10.51 11.9 7 9 1013 0 23.7 28.9 47.4 124.6 123.5 426.4
Longerenong 25 01:20 13.2 77 8.84 9.2 4 4 1013.1 0 20.1 26.5 41.1 107.8 102.4 352.3
Mallacoota 25 01:20 14.2 82 10.01 11.2 7 9 1014.1 0 22.6 28.1 45.4 119.4 117.0 403.5
Mangalore 25 01:20 14.1 79 9.59 10.5 11 15 1012.1 0 21.7 27.4 43.6 114.7 111.2 383.2
Melbourne (Olympic Park) 25 01:20 15.2 84 10.9 12.5 0 0 1013 0 24.4 29.3 48.5 127.8 127.7 441.0
Melbourne Airport 25 01:20 13.6 84 9.89 11 6 7 1013.1 0 22.4 28.1 45.2 118.9 116.1 400.5
Mildura 25 01:20 20.7 44 7.92 8 13 17 1012.4 0 17.8 23.0 34.0 89.2 82.0 281.9
Moorabbin Airport 25 01:20 13.6 88 10.36 11.7 6 7 1013.1 0 23.4 28.9 47.2 124.2 122.7 423.5
Mortlake 25 01:20 10.8 100 9.89 10.8 4 4 1013.3 0 22.5 29.0 46.9 123.3 120.5 415.4
Mount Baw Baw 25 01:20 5.8 100 7.17 5.8 9 11 1013.1 0.2 16.9 25.8 37.8 99.1 88.7 303.4
Mount Buller 25 01:20 9.3 82 7.37 6.4 0 0 1013.1 0 17.2 25.2 37.0 96.9 87.4 299.4
Mount Gellibrand 25 01:00 11.9 100 10.59 11.9 9 9 1013.2 0 24.0 29.9 49.3 129.7 128.8 444.6
Mount Hotham Airport 25 01:20 8.9 99 8.68 8.8 2 2 1014.4 0 20.0 27.6 42.8 112.3 106.1 364.8
Mount Moornapa 25 01:20 12.9 93 10.48 11.8 4 4 1013.1 0 23.7 29.3 48.2 126.8 125.6 433.3
Mount Nowa Nowa 25 01:20 12.8 90 10.08 11.2 6 7 1013.1 0.2 22.8 28.7 46.5 122.3 120.0 414.0
Mount William 25 01:20 9.4 73 6.6 4.8 26 28 1013.1 0 15.5 23.9 33.9 88.6 77.1 263.4
Nhill Aerodrome 25 01:20 13.9 68 8.15 8.1 6 7 1013.3 0 18.6 25.1 38.0 99.5 92.4 317.5
Omeo 25 01:20 12.2 89 9.61 10.4 13 15 1013.2 0 21.8 28.1 44.8 117.9 114.3 394.1
Orbost 25 01:20 14.8 88 11.15 12.8 0 0 1014.1 0 25.0 29.9 49.9 131.5 132.0 456.1
Port Fairy 25 01:20 14.2 87 10.62 12 6 6 1012.9 0 23.9 29.1 48.0 126.2 125.4 432.9
Portable Vpha (Delwp) 25 01:00 16 76 10.35 11.9 2 9 1013.1 0 23.2 28.1 45.7 120.3 118.8 410.1
Portable Vphb (Delwp) 25 01:00 16 76 10.35 11.9 4 11 1013.1 0 23.2 28.1 45.7 120.3 118.8 410.1
Portable Vphc (Delwp) 25 01:00 16 76 10.35 11.8 4 11 1013.1 0 23.2 28.1 45.7 120.3 118.8 410.1
Portable Vphd (Delwp) 25 01:00 15.7 78 10.44 11.9 4 9 1013.1 0 23.4 28.3 46.3 121.8 120.5 416.0
Portable Vphe (Delwp) 25 01:00 15.8 78 10.5 12 4 11 1013.1 0 23.5 28.4 46.5 122.3 121.2 418.3
Portable Vphf (Delwp) 25 01:00 15.5 78 10.31 11.7 2 9 1013.1 0 23.2 28.2 45.9 120.7 119.0 410.8
Portland Airport 25 01:20 13.8 88 10.49 11.8 11 15 1012.9 0 23.6 29.0 47.6 125.4 124.2 428.7
Pound Creek 25 01:20 13.8 94 11.2 12.8 6 6 1013.2 0 25.2 30.3 50.7 133.7 134.4 464.3
Puckapunyal West (Defence) 25 01:20 11.6 90 9.36 10 9 11 1013.1 0 21.3 27.8 44.1 115.9 111.7 384.8
Puckapunyal-Lyon Hill (Defence) 25 01:20 14.3 80 9.83 11 9 11 1013.1 0 22.2 27.8 44.6 117.2 114.3 394.0
Redesdale 25 01:20 12.1 90 9.65 10.5 6 7 1013.1 0.2 21.9 28.2 45.1 118.5 115.0 396.5
Rhyll 25 01:20 14.3 80 9.83 11 0 0 1013.2 0 22.2 27.8 44.6 117.2 114.3 394.1
Rutherglen 25 01:20 12.7 87 9.69 10.6 7 9 1013.1 0 22.0 28.0 44.9 118.0 114.7 395.4
Scoresby 25 01:20 11.9 97 10.27 11.4 0 0 1013.1 0 23.3 29.3 47.9 125.9 124.2 428.4
Sheoaks 25 01:20 13.5 90 10.53 11.9 0 0 1013 0 23.7 29.2 48.0 126.3 125.3 432.4
Shepparton 25 01:20 15.1 76 9.8 10.9 13 15 1012.1 0 22.1 27.4 43.9 115.5 112.6 388.3
Stawell 25 01:20 14.4 84 10.38 11.7 6 7 1012.8 0 23.4 28.7 46.8 123.1 121.7 420.0
Swan Hill 25 01:20 16.7 61 8.67 9.1 7 7 1012.3 0 19.6 25.1 38.6 101.3 95.6 329.2
Tatura 25 01:20 15 76 9.75 10.8 11 11 1013.1 0 22.0 27.4 43.8 115.2 112.1 386.7
Viewbank 25 01:20 13.9 99 11.87 13.7 0 0 1012.8 0 26.6 31.4 53.6 141.4 143.9 497.7
Walpeup 25 01:20 16.7 52 7.39 6.8 9 11 1013.1 0 16.9 23.2 33.8 88.5 79.8 273.6
Wangaratta 25 01:20 14.7 78 9.82 10.9 9 9 1010.8 0 22.2 27.5 44.2 116.2 113.3 390.8
Warracknabeal Airport 25 01:20 14.2 72 8.79 9.2 11 13 1012.9 0 20.0 26.1 40.3 105.9 100.4 345.4
Warragul (Nilma North) 25 01:20 14.3 97 11.92 13.9 6 6 1013.1 0 26.7 31.4 53.6 141.3 144.0 497.7
Warrnambool 25 01:20 11.9 86 9.11 9.6 9 9 1013.2 0 20.8 27.3 42.9 112.7 107.8 371.2
Westmere 25 01:20 11 100 10.01 11 0 0 1013 0 22.8 29.1 47.3 124.4 121.9 420.2
Wilsons Promontory 25 01:20 14.5 86 10.7 12.2 15 20 1012.5 0 24.1 29.2 48.1 126.6 126.0 435.0
Yanakie 25 01:20 12.9 95 10.71 12.1 6 6 1013.1 0 24.2 29.7 49.2 129.4 128.9 444.8
Yarram Airport 25 01:20 8.6 96 8.25 8 9 9 1013.5 0 19.1 26.9 41.0 107.7 100.4 344.7
Yarrawonga 25 01:20 14.4 78 9.64 10.6 11 11 1013.1 0 21.8 27.4 43.7 114.9 111.5 384.5

Last Refresh: 25-Nov-2020 00:58:27

The information presented on this site is sourced from the Bureau of Meteorology.  Copyright in all material sourced from the Bureau of Meteorology resides with the Commonwealth of Australia.